createdAt,value
2022-10-28T00:01:14.636Z,90.60
2022-10-28T00:03:45.113Z,90.60
2022-10-28T00:06:14.890Z,90.40
2022-10-28T00:08:45.342Z,90.30
2022-10-28T00:11:17.377Z,90.40
2022-10-28T00:13:46.029Z,90.30
2022-10-28T00:16:16.753Z,90.20
2022-10-28T00:18:44.974Z,90.10
2022-10-28T00:21:20.300Z,90.30
2022-10-28T00:23:47.369Z,90.50
2022-10-28T00:26:19.863Z,90.50
2022-10-28T00:28:50.275Z,90.70
2022-10-28T00:31:19.147Z,90.50
2022-10-28T00:33:46.648Z,90.70
2022-10-28T00:36:19.359Z,90.70
2022-10-28T00:38:49.865Z,91.10
2022-10-28T00:41:23.129Z,91.10
2022-10-28T00:43:54.511Z,90.80
2022-10-28T00:46:32.236Z,90.80
2022-10-28T00:49:06.710Z,91.00
2022-10-28T00:51:35.905Z,90.70
2022-10-28T00:54:04.775Z,90.80
2022-10-28T00:56:36.342Z,90.70
2022-10-28T00:59:07.638Z,90.80
2022-10-28T01:01:34.606Z,90.80
2022-10-28T01:04:02.912Z,90.80
2022-10-28T01:06:30.436Z,90.70
2022-10-28T01:08:59.922Z,90.80
2022-10-28T01:11:41.232Z,90.70
2022-10-28T01:14:20.067Z,90.60
2022-10-28T01:17:02.104Z,90.70
2022-10-28T01:19:42.742Z,91.10
2022-10-28T01:22:17.637Z,91.00
2022-10-28T01:25:04.137Z,90.90
2022-10-28T01:27:55.428Z,90.90
2022-10-28T01:30:25.565Z,91.10
2022-10-28T01:33:36.667Z,90.90
2022-10-28T01:36:14.040Z,90.90
2022-10-28T01:39:02.385Z,91.00
2022-10-28T01:41:56.751Z,91.10
2022-10-28T01:44:44.646Z,91.00
2022-10-28T01:47:26.680Z,90.90
2022-10-28T01:50:11.644Z,91.10
2022-10-28T01:52:42.448Z,91.00
2022-10-28T01:55:20.119Z,91.00
2022-10-28T01:57:49.794Z,91.10
2022-10-28T02:00:17.154Z,91.40
2022-10-28T02:02:46.906Z,91.30
2022-10-28T02:05:43.606Z,91.50
2022-10-28T02:08:33.480Z,91.40
2022-10-28T02:11:01.399Z,91.40
2022-10-28T02:13:52.331Z,91.30
2022-10-28T02:16:42.438Z,91.20
2022-10-28T02:19:26.185Z,91.60
2022-10-28T02:22:14.352Z,91.90
2022-10-28T02:24:50.683Z,91.60
2022-10-28T02:27:52.088Z,91.60
2022-10-28T02:30:40.887Z,91.60
2022-10-28T02:33:12.945Z,91.90
2022-10-28T02:35:54.594Z,91.90
2022-10-28T02:38:33.605Z,91.50
2022-10-28T02:41:08.340Z,91.60
2022-10-28T02:43:38.266Z,91.80
2022-10-28T02:46:06.481Z,91.80
2022-10-28T02:48:46.047Z,91.80
2022-10-28T02:51:19.224Z,91.80
2022-10-28T02:54:05.713Z,92.20
2022-10-28T02:56:45.006Z,91.80
2022-10-28T02:59:13.022Z,91.50
2022-10-28T03:01:43.307Z,91.60
2022-10-28T03:04:10.312Z,91.70
2022-10-28T03:06:36.972Z,91.60
2022-10-28T03:09:03.643Z,91.60
2022-10-28T03:11:31.913Z,91.70
2022-10-28T03:14:05.072Z,92.40
2022-10-28T03:16:31.792Z,91.90
2022-10-28T03:18:58.580Z,91.90
2022-10-28T03:21:25.441Z,91.80
2022-10-28T03:23:52.112Z,91.90
2022-10-28T03:26:18.850Z,91.60
2022-10-28T03:28:45.713Z,91.70
2022-10-28T03:31:12.928Z,91.80
2022-10-28T03:33:40.767Z,91.70
2022-10-28T03:36:07.748Z,91.90
2022-10-28T03:38:34.902Z,91.70
2022-10-28T03:41:01.724Z,91.80
2022-10-28T03:43:28.497Z,91.60
2022-10-28T03:45:55.341Z,91.50
2022-10-28T03:48:23.300Z,91.70
2022-10-28T03:50:54.188Z,91.50
2022-10-28T03:53:21.668Z,91.80
2022-10-28T03:55:56.215Z,91.80
2022-10-28T03:58:23.307Z,91.90
2022-10-28T04:00:51.371Z,92.10
2022-10-28T04:03:19.350Z,92.20
2022-10-28T04:05:52.288Z,92.10
2022-10-28T04:08:21.390Z,92.20
2022-10-28T04:10:54.178Z,92.10
2022-10-28T04:13:20.883Z,92.00
2022-10-28T04:15:47.559Z,92.20
2022-10-28T04:18:14.327Z,92.20
2022-10-28T04:20:41.515Z,92.10
2022-10-28T04:23:10.191Z,92.10
2022-10-28T04:25:36.942Z,92.20
2022-10-28T04:28:06.249Z,92.20
2022-10-28T04:30:32.995Z,92.40
2022-10-28T04:32:59.671Z,92.20
2022-10-28T04:35:26.528Z,92.40
2022-10-28T04:37:53.507Z,92.40
2022-10-28T04:40:20.419Z,92.40
2022-10-28T04:42:47.149Z,92.70
2022-10-28T04:45:15.606Z,92.60
2022-10-28T04:47:42.289Z,92.50
2022-10-28T04:50:09.329Z,92.50
2022-10-28T04:52:36.111Z,93.20
2022-10-28T04:55:02.868Z,93.20
2022-10-28T04:57:29.726Z,93.10
2022-10-28T04:59:56.560Z,93.20
2022-10-28T05:02:23.780Z,93.00
2022-10-28T05:04:50.597Z,92.80
2022-10-28T05:07:19.898Z,92.70
2022-10-28T05:09:49.547Z,92.70
2022-10-28T05:12:16.302Z,92.70
2022-10-28T05:14:43.098Z,92.60
2022-10-28T05:17:11.384Z,92.80
2022-10-28T05:19:38.213Z,92.70
2022-10-28T05:22:05.099Z,92.70
2022-10-28T05:24:31.896Z,92.60
2022-10-28T05:27:00.825Z,92.70
2022-10-28T05:29:32.283Z,92.60
2022-10-28T05:32:08.222Z,92.70
2022-10-28T05:34:35.069Z,92.90
2022-10-28T05:37:03.930Z,93.00
2022-10-28T05:39:36.573Z,93.00
2022-10-28T05:42:03.484Z,93.10
2022-10-28T05:44:30.219Z,92.80
2022-10-28T05:46:56.932Z,92.70
2022-10-28T05:49:23.829Z,92.60
2022-10-28T05:51:52.593Z,92.60
2022-10-28T05:54:19.439Z,92.70
2022-10-28T05:56:46.243Z,92.70
2022-10-28T05:59:12.931Z,92.70
2022-10-28T06:01:43.005Z,92.90
2022-10-28T06:04:11.089Z,93.00
2022-10-28T06:06:38.421Z,93.00
2022-10-28T06:09:05.315Z,93.10
2022-10-28T06:11:30.508Z,93.20
2022-10-28T06:14:08.973Z,93.40
2022-10-28T06:16:35.653Z,93.50
2022-10-28T06:19:02.524Z,93.70
2022-10-28T06:21:31.768Z,93.80
2022-10-28T06:23:59.549Z,93.90
2022-10-28T06:26:26.562Z,94.10
2022-10-28T06:28:53.321Z,94.30
2022-10-28T06:31:21.016Z,94.30
2022-10-28T06:33:48.763Z,94.30
2022-10-28T06:36:15.562Z,94.20
2022-10-28T06:38:42.665Z,94.30
2022-10-28T06:41:09.472Z,94.30
2022-10-28T06:43:36.113Z,94.40
2022-10-28T06:46:05.246Z,94.50
2022-10-28T06:48:34.614Z,94.60
2022-10-28T06:51:01.654Z,94.60
2022-10-28T06:53:30.511Z,94.70
2022-10-28T06:55:58.675Z,94.80
2022-10-28T06:58:26.271Z,94.90
2022-10-28T07:00:53.868Z,94.90
2022-10-28T07:03:22.093Z,95.10
2022-10-28T07:05:51.431Z,95.10
2022-10-28T07:08:20.116Z,95.20
2022-10-28T07:10:55.585Z,95.30
2022-10-28T07:13:23.181Z,95.40
2022-10-28T07:16:08.965Z,95.40
2022-10-28T07:18:35.685Z,95.50
2022-10-28T07:21:02.616Z,95.60
2022-10-28T07:23:32.503Z,95.50
2022-10-28T07:26:00.697Z,95.40
2022-10-28T07:28:28.019Z,95.50
2022-10-28T07:30:55.147Z,95.40
2022-10-28T07:33:21.812Z,95.50
2022-10-28T07:35:48.549Z,95.50
2022-10-28T07:38:18.808Z,95.30
2022-10-28T07:40:52.539Z,95.20
2022-10-28T07:43:19.488Z,95.30
2022-10-28T07:46:04.473Z,95.30
2022-10-28T07:48:31.300Z,95.30
2022-10-28T07:51:01.933Z,95.40
2022-10-28T07:53:29.115Z,95.50
2022-10-28T07:56:09.681Z,95.50
2022-10-28T07:58:37.035Z,95.60
2022-10-28T08:01:08.553Z,95.70
2022-10-28T08:03:38.842Z,95.70
2022-10-28T08:06:18.973Z,95.70
2022-10-28T08:08:48.769Z,95.40
2022-10-28T08:11:22.567Z,95.20
2022-10-28T08:13:50.082Z,95.20
2022-10-28T08:16:17.226Z,95.20
2022-10-28T08:18:45.761Z,94.50
2022-10-28T08:21:14.100Z,94.70
2022-10-28T08:23:41.701Z,94.70
2022-10-28T08:26:08.580Z,94.50
2022-10-28T08:28:35.298Z,93.70
2022-10-28T08:31:09.182Z,93.60
2022-10-28T08:33:38.191Z,93.30
2022-10-28T08:36:06.426Z,93.00
2022-10-28T08:38:33.745Z,92.60
2022-10-28T08:41:29.668Z,91.80
2022-10-28T08:44:15.304Z,91.20
2022-10-28T08:47:06.756Z,91.60
2022-10-28T08:49:36.504Z,91.50
2022-10-28T08:52:14.715Z,90.80
2022-10-28T08:54:41.441Z,90.20
2022-10-28T08:57:18.055Z,89.40
2022-10-28T08:59:48.963Z,87.80
2022-10-28T09:02:22.124Z,85.90
2022-10-28T09:05:12.003Z,85.80
2022-10-28T09:07:38.766Z,85.40
2022-10-28T09:10:07.012Z,84.60
2022-10-28T09:12:55.480Z,84.00
2022-10-28T09:15:35.389Z,83.50
2022-10-28T09:18:08.537Z,83.10
2022-10-28T09:20:54.895Z,82.90
2022-10-28T09:23:29.885Z,82.20
2022-10-28T09:26:15.021Z,81.40
2022-10-28T09:29:05.284Z,81.60
2022-10-28T09:32:11.793Z,81.60
2022-10-28T09:37:31.479Z,80.40
2022-10-28T09:40:25.429Z,80.00
2022-10-28T09:43:07.136Z,80.00
2022-10-28T09:45:49.112Z,78.20
2022-10-28T09:48:32.768Z,78.20
2022-10-28T09:51:02.440Z,78.10
2022-10-28T09:53:47.598Z,77.80
2022-10-28T09:56:15.737Z,77.00
2022-10-28T09:58:46.913Z,76.40
2022-10-28T10:01:15.437Z,76.80
2022-10-28T10:03:42.613Z,74.90
2022-10-28T10:06:29.999Z,74.70
2022-10-28T10:08:57.476Z,73.40
2022-10-28T10:11:24.110Z,73.70
2022-10-28T10:13:52.744Z,73.10
2022-10-28T10:16:52.825Z,73.00
2022-10-28T10:19:19.800Z,74.00
2022-10-28T10:21:50.080Z,74.00
2022-10-28T10:24:33.912Z,73.80
2022-10-28T10:27:23.483Z,74.40
2022-10-28T10:29:52.734Z,74.60
2022-10-28T10:32:28.312Z,74.60
2022-10-28T10:35:20.613Z,73.70
2022-10-28T10:37:48.076Z,73.60
2022-10-28T10:40:31.415Z,73.30
2022-10-28T10:46:03.322Z,73.50
2022-10-28T10:49:42.488Z,73.30
2022-10-28T10:52:24.259Z,73.60
2022-10-28T10:55:02.959Z,74.10
2022-10-28T10:57:30.639Z,74.10
2022-10-28T10:59:57.906Z,72.50
2022-10-28T11:02:34.946Z,71.70
2022-10-28T11:05:09.005Z,71.90
2022-10-28T11:07:38.082Z,71.50
2022-10-28T11:10:07.051Z,71.00
2022-10-28T11:15:23.095Z,71.70
2022-10-28T11:18:11.824Z,71.90
2022-10-28T11:20:55.016Z,72.40
2022-10-28T11:23:27.838Z,72.20
2022-10-28T11:25:57.197Z,72.00
2022-10-28T11:28:47.956Z,71.70
2022-10-28T11:31:33.401Z,72.20
2022-10-28T11:34:26.098Z,72.40
2022-10-28T11:37:18.947Z,72.70
2022-10-28T11:40:16.492Z,71.90
2022-10-28T11:43:23.319Z,71.50
2022-10-28T11:46:00.535Z,71.40
2022-10-28T11:49:10.465Z,71.50
2022-10-28T11:52:14.203Z,70.50
2022-10-28T11:54:45.786Z,69.40
2022-10-28T11:57:45.314Z,69.30
2022-10-28T12:00:27.741Z,70.50
2022-10-28T12:03:12.807Z,70.20
2022-10-28T12:06:04.954Z,69.80
2022-10-28T12:08:54.050Z,69.50
2022-10-28T12:11:47.827Z,67.70
2022-10-28T12:14:37.032Z,68.10
2022-10-28T12:17:26.908Z,68.10
2022-10-28T12:20:10.660Z,67.60
2022-10-28T12:22:53.098Z,67.70
2022-10-28T12:25:27.787Z,66.80
2022-10-28T12:28:06.011Z,66.90
2022-10-28T12:30:36.901Z,67.30
2022-10-28T12:33:28.923Z,67.00
2022-10-28T12:36:18.098Z,67.60
2022-10-28T12:38:46.905Z,67.60
2022-10-28T12:41:27.238Z,68.10
2022-10-28T12:44:09.336Z,67.90
2022-10-28T12:46:52.568Z,68.20
2022-10-28T12:49:42.530Z,68.80
2022-10-28T12:52:30.694Z,69.00
2022-10-28T12:55:16.103Z,69.40
2022-10-28T12:58:16.397Z,69.60
2022-10-28T13:00:51.152Z,69.90
2022-10-28T13:03:18.852Z,70.00
2022-10-28T13:06:10.328Z,69.90
2022-10-28T13:08:58.804Z,69.40
2022-10-28T13:11:25.403Z,69.30
2022-10-28T13:14:16.263Z,69.50
2022-10-28T13:16:48.682Z,68.70
2022-10-28T13:19:37.486Z,68.60
2022-10-28T13:22:10.221Z,68.90
2022-10-28T13:24:52.823Z,68.60
2022-10-28T13:27:22.965Z,68.50
2022-10-28T13:29:54.943Z,67.60
2022-10-28T13:32:32.656Z,67.10
2022-10-28T13:35:30.139Z,66.70
2022-10-28T13:37:58.298Z,67.00
2022-10-28T13:40:32.355Z,66.80
2022-10-28T13:43:02.082Z,67.00
2022-10-28T13:45:54.563Z,67.20
2022-10-28T13:48:30.154Z,67.20
2022-10-28T13:51:11.146Z,67.50
2022-10-28T13:53:39.282Z,66.50
2022-10-28T13:56:18.613Z,65.40
2022-10-28T13:59:14.099Z,65.40
2022-10-28T14:02:33.372Z,64.90
2022-10-28T14:05:02.755Z,64.80
2022-10-28T14:07:31.881Z,64.40
2022-10-28T14:10:26.597Z,64.40
2022-10-28T14:12:59.652Z,64.20
2022-10-28T14:15:33.796Z,64.10
2022-10-28T14:18:16.191Z,63.80
2022-10-28T14:21:00.842Z,64.00
2022-10-28T14:23:27.738Z,64.70
2022-10-28T14:25:54.674Z,64.10
2022-10-28T14:28:31.309Z,64.50
2022-10-28T14:31:12.957Z,64.80
2022-10-28T14:33:42.368Z,64.60
2022-10-28T14:36:22.045Z,65.00
2022-10-28T14:39:24.080Z,65.30
2022-10-28T14:42:06.115Z,66.20
2022-10-28T14:44:54.338Z,66.30
2022-10-28T14:47:48.415Z,66.20
2022-10-28T14:50:30.925Z,66.50
2022-10-28T14:53:01.097Z,67.00
2022-10-28T14:55:31.250Z,67.00
2022-10-28T14:58:22.706Z,67.50
2022-10-28T15:01:28.033Z,68.00
2022-10-28T15:03:59.116Z,68.00
2022-10-28T15:06:25.886Z,69.10
2022-10-28T15:08:54.444Z,69.50
2022-10-28T15:11:22.255Z,69.30
2022-10-28T15:13:53.353Z,69.90
2022-10-28T15:16:24.196Z,70.50
2022-10-28T15:18:53.597Z,71.40
2022-10-28T15:21:22.656Z,72.50
2022-10-28T15:24:02.580Z,72.90
2022-10-28T15:26:29.506Z,73.60
2022-10-28T15:28:56.457Z,74.10
2022-10-28T15:31:23.205Z,74.80
2022-10-28T15:33:50.084Z,74.80
2022-10-28T15:36:20.695Z,74.80
2022-10-28T15:38:50.925Z,75.30
2022-10-28T15:41:26.400Z,76.20
2022-10-28T15:44:00.737Z,76.10
2022-10-28T15:46:28.592Z,76.80
2022-10-28T15:51:32.384Z,77.40
2022-10-28T15:54:19.042Z,77.80
2022-10-28T15:56:59.893Z,78.00
2022-10-28T15:59:27.103Z,78.30
2022-10-28T16:01:56.567Z,78.90
2022-10-28T16:04:23.444Z,79.10
2022-10-28T16:06:56.000Z,78.80
2022-10-28T16:09:34.548Z,79.10
2022-10-28T16:12:05.968Z,79.60
2022-10-28T16:14:41.946Z,79.90
2022-10-28T16:17:33.430Z,79.70
2022-10-28T16:20:04.322Z,80.70
2022-10-28T16:22:34.753Z,80.60
2022-10-28T16:25:01.831Z,81.20
2022-10-28T16:27:32.219Z,81.30
2022-10-28T16:29:59.010Z,81.70
2022-10-28T16:32:28.669Z,82.30
2022-10-28T16:34:58.988Z,82.20
2022-10-28T16:37:28.496Z,82.50
2022-10-28T16:39:56.145Z,82.50
2022-10-28T16:42:26.868Z,81.90
2022-10-28T16:44:53.846Z,81.80
2022-10-28T16:47:22.268Z,81.90
2022-10-28T16:49:54.011Z,81.90
2022-10-28T16:52:27.254Z,82.50
2022-10-28T16:54:54.288Z,82.80
2022-10-28T16:57:21.558Z,82.60
2022-10-28T16:59:51.612Z,83.30
2022-10-28T17:02:20.334Z,83.30
2022-10-28T17:04:47.751Z,83.30
2022-10-28T17:07:16.428Z,83.70
2022-10-28T17:09:48.279Z,83.50
2022-10-28T17:12:17.174Z,84.20
2022-10-28T17:14:44.373Z,83.80
2022-10-28T17:17:11.793Z,84.00
2022-10-28T17:19:40.657Z,83.80
2022-10-28T17:22:10.327Z,84.10
2022-10-28T17:24:38.908Z,83.70
2022-10-28T17:27:06.582Z,83.80
2022-10-28T17:29:33.593Z,84.40
2022-10-28T17:32:02.515Z,84.00
2022-10-28T17:34:29.500Z,84.20
2022-10-28T17:36:57.427Z,83.80
2022-10-28T17:39:26.390Z,85.20
2022-10-28T17:42:01.021Z,84.40
2022-10-28T17:44:27.869Z,84.10
2022-10-28T17:46:54.653Z,84.40
2022-10-28T17:49:21.550Z,84.30
2022-10-28T17:51:48.341Z,84.70
2022-10-28T17:54:15.109Z,84.70
2022-10-28T17:56:42.404Z,85.20
2022-10-28T17:59:09.726Z,85.60
2022-10-28T18:01:39.085Z,85.40
2022-10-28T18:04:06.274Z,85.30
2022-10-28T18:06:33.744Z,85.40
2022-10-28T18:09:00.842Z,85.60
2022-10-28T18:11:29.844Z,85.90
2022-10-28T18:14:01.309Z,85.60
2022-10-28T18:16:28.566Z,85.80
2022-10-28T18:18:56.312Z,85.50
2022-10-28T18:21:24.534Z,85.30
2022-10-28T18:24:03.951Z,85.20
2022-10-28T18:26:34.996Z,85.30
2022-10-28T18:29:04.921Z,85.90
2022-10-28T18:31:33.399Z,85.80
2022-10-28T18:34:01.474Z,86.10
2022-10-28T18:36:30.767Z,85.80
2022-10-28T18:38:58.064Z,86.00
2022-10-28T18:41:26.977Z,85.90
2022-10-28T18:43:55.114Z,86.10
2022-10-28T18:46:22.883Z,86.40
2022-10-28T18:48:49.946Z,86.30
2022-10-28T18:51:17.017Z,86.50
2022-10-28T18:53:45.921Z,86.60
2022-10-28T18:56:16.318Z,86.50
2022-10-28T18:58:43.304Z,86.50
2022-10-28T19:01:14.640Z,86.30
2022-10-28T19:03:44.543Z,86.50
2022-10-28T19:06:13.941Z,86.40
2022-10-28T19:08:41.515Z,86.80
2022-10-28T19:11:09.701Z,86.90
2022-10-28T19:13:38.653Z,86.60
2022-10-28T19:16:06.669Z,86.90
2022-10-28T19:18:35.528Z,86.80
2022-10-28T19:21:10.142Z,87.10
2022-10-28T19:23:37.774Z,87.20
2022-10-28T19:26:04.863Z,87.20
2022-10-28T19:28:38.416Z,87.00
2022-10-28T19:31:17.155Z,87.50
2022-10-28T19:33:45.312Z,87.50
2022-10-28T19:36:23.580Z,87.30
2022-10-28T19:38:56.356Z,87.50
2022-10-28T19:41:25.622Z,88.00
2022-10-28T19:43:58.747Z,88.10
2022-10-28T19:46:27.200Z,87.90
2022-10-28T19:48:56.922Z,87.60
2022-10-28T19:51:28.756Z,87.50
2022-10-28T19:53:58.024Z,88.10
2022-10-28T19:56:27.699Z,87.90
2022-10-28T19:58:57.415Z,87.80
2022-10-28T20:01:27.253Z,87.90
2022-10-28T20:03:54.966Z,88.20
2022-10-28T20:06:22.776Z,88.50
2022-10-28T20:08:50.173Z,88.20
2022-10-28T20:11:25.955Z,88.20
2022-10-28T20:14:05.626Z,88.10
2022-10-28T20:16:36.036Z,88.20
2022-10-28T20:19:02.735Z,88.20
2022-10-28T20:21:35.323Z,88.40
2022-10-28T20:24:12.558Z,88.50
2022-10-28T20:26:39.302Z,88.40
2022-10-28T20:29:09.779Z,88.20
2022-10-28T20:31:38.780Z,88.50
2022-10-28T20:34:05.659Z,88.60
2022-10-28T20:36:34.053Z,88.40
2022-10-28T20:39:15.412Z,88.50
2022-10-28T20:41:43.637Z,88.20
2022-10-28T20:44:10.711Z,88.00
2022-10-28T20:46:38.015Z,88.10
2022-10-28T20:49:05.655Z,88.10
2022-10-28T20:51:32.917Z,88.20
2022-10-28T20:54:00.114Z,88.30
2022-10-28T20:56:29.202Z,88.50
2022-10-28T20:58:56.790Z,88.60
2022-10-28T21:01:25.123Z,88.70
2022-10-28T21:03:55.130Z,88.90
2022-10-28T21:06:22.208Z,88.80
2022-10-28T21:08:50.927Z,88.90
2022-10-28T21:11:18.090Z,89.30
2022-10-28T21:13:49.008Z,89.10
2022-10-28T21:16:15.686Z,89.50
2022-10-28T21:18:42.393Z,89.40
2022-10-28T21:21:13.094Z,89.60
2022-10-28T21:23:39.791Z,89.10
2022-10-28T21:26:08.207Z,89.30
2022-10-28T21:28:36.070Z,89.50
2022-10-28T21:31:05.636Z,89.70
2022-10-28T21:33:33.834Z,89.80
2022-10-28T21:36:03.708Z,89.80
2022-10-28T21:38:30.721Z,90.10
2022-10-28T21:41:06.496Z,90.20
2022-10-28T21:43:35.136Z,90.70
2022-10-28T21:46:02.402Z,90.80
2022-10-28T21:48:30.472Z,90.40
2022-10-28T21:50:59.137Z,90.60
2022-10-28T21:58:42.868Z,91.00
2022-10-28T22:01:18.635Z,91.10
2022-10-28T22:03:46.896Z,91.80
2022-10-28T22:06:13.896Z,92.10
2022-10-28T22:08:41.092Z,91.70
2022-10-28T22:11:19.547Z,91.70
2022-10-28T22:14:01.959Z,91.50
2022-10-28T22:16:30.491Z,91.20
2022-10-28T22:19:04.077Z,91.30
2022-10-28T22:21:33.983Z,91.30
2022-10-28T22:24:00.777Z,91.60
2022-10-28T22:26:29.709Z,91.30
2022-10-28T22:28:56.809Z,91.30
2022-10-28T22:31:31.491Z,91.10
2022-10-28T22:33:59.087Z,91.10
2022-10-28T22:36:27.232Z,91.10
2022-10-28T22:38:55.161Z,91.40
2022-10-28T22:41:26.088Z,91.20
2022-10-28T22:43:55.709Z,91.00
2022-10-28T22:46:24.363Z,91.20
2022-10-28T22:48:51.137Z,91.20
2022-10-28T22:51:18.363Z,91.40
2022-10-28T22:53:45.608Z,91.30
2022-10-28T22:56:18.205Z,91.40
2022-10-28T22:58:44.840Z,91.60
2022-10-28T23:01:15.139Z,91.50
2022-10-28T23:03:44.728Z,91.50
2022-10-28T23:06:12.915Z,91.70
2022-10-28T23:08:41.053Z,91.50
2022-10-28T23:11:10.023Z,91.60
2022-10-28T23:16:11.348Z,91.50
2022-10-28T23:18:38.551Z,91.40
2022-10-28T23:21:12.156Z,91.60
2022-10-28T23:23:41.025Z,91.30
2022-10-28T23:26:14.040Z,91.20
2022-10-28T23:28:41.706Z,91.30
2022-10-28T23:31:12.094Z,91.40
2022-10-28T23:33:38.910Z,91.20
2022-10-28T23:36:06.904Z,91.20
2022-10-28T23:38:33.724Z,90.90
2022-10-28T23:41:02.952Z,91.10
2022-10-28T23:43:32.432Z,91.20
2022-10-28T23:45:59.923Z,91.00
2022-10-28T23:48:28.345Z,91.00
2022-10-28T23:50:55.543Z,91.00
2022-10-28T23:53:23.430Z,90.80
2022-10-28T23:55:51.198Z,91.00
2022-10-28T23:58:19.350Z,90.90
